sensor_id;sensor_type;location;lat;lon;timestamp;P1;durP1;ratioP1;P2;durP2;ratioP2
11614;SDS011;5863;52.832;4.758;2022-09-23T00:00:48;12.95;;;10.50;;
11614;SDS011;5863;52.832;4.758;2022-09-23T00:03:14;13.43;;;10.73;;
11614;SDS011;5863;52.832;4.758;2022-09-23T00:05:42;12.30;;;11.02;;
11614;SDS011;5863;52.832;4.758;2022-09-23T00:08:09;11.57;;;10.32;;
11614;SDS011;5863;52.832;4.758;2022-09-23T00:10:38;13.75;;;10.13;;
11614;SDS011;5863;52.832;4.758;2022-09-23T00:13:05;13.60;;;10.45;;
11614;SDS011;5863;52.832;4.758;2022-09-23T00:15:36;11.52;;;9.57;;
11614;SDS011;5863;52.832;4.758;2022-09-23T00:18:03;12.48;;;10.30;;
11614;SDS011;5863;52.832;4.758;2022-09-23T00:20:32;13.45;;;10.32;;
11614;SDS011;5863;52.832;4.758;2022-09-23T00:23:00;12.70;;;9.80;;
11614;SDS011;5863;52.832;4.758;2022-09-23T00:25:26;14.48;;;10.30;;
11614;SDS011;5863;52.832;4.758;2022-09-23T00:27:55;10.82;;;9.68;;
11614;SDS011;5863;52.832;4.758;2022-09-23T00:30:22;11.50;;;9.52;;
11614;SDS011;5863;52.832;4.758;2022-09-23T00:32:50;12.90;;;9.05;;
11614;SDS011;5863;52.832;4.758;2022-09-23T00:35:17;13.43;;;9.52;;
11614;SDS011;5863;52.832;4.758;2022-09-23T00:37:44;11.45;;;9.18;;
11614;SDS011;5863;52.832;4.758;2022-09-23T00:40:11;11.63;;;9.07;;
11614;SDS011;5863;52.832;4.758;2022-09-23T00:42:43;14.18;;;9.40;;
11614;SDS011;5863;52.832;4.758;2022-09-23T00:45:14;9.93;;;9.02;;
11614;SDS011;5863;52.832;4.758;2022-09-23T00:47:43;11.68;;;8.75;;
11614;SDS011;5863;52.832;4.758;2022-09-23T00:50:14;11.57;;;8.98;;
11614;SDS011;5863;52.832;4.758;2022-09-23T00:52:46;9.50;;;8.55;;
11614;SDS011;5863;52.832;4.758;2022-09-23T00:55:15;12.65;;;8.75;;
11614;SDS011;5863;52.832;4.758;2022-09-23T00:57:44;10.48;;;8.75;;
11614;SDS011;5863;52.832;4.758;2022-09-23T01:00:13;9.82;;;8.25;;
11614;SDS011;5863;52.832;4.758;2022-09-23T01:02:40;9.35;;;8.35;;
11614;SDS011;5863;52.832;4.758;2022-09-23T01:05:07;10.10;;;8.32;;
11614;SDS011;5863;52.832;4.758;2022-09-23T01:07:35;11.52;;;8.50;;
11614;SDS011;5863;52.832;4.758;2022-09-23T01:10:01;9.70;;;7.95;;
11614;SDS011;5863;52.832;4.758;2022-09-23T01:12:34;10.50;;;8.00;;
11614;SDS011;5863;52.832;4.758;2022-09-23T01:15:13;12.32;;;8.52;;
11614;SDS011;5863;52.832;4.758;2022-09-23T01:17:46;9.77;;;8.02;;
11614;SDS011;5863;52.832;4.758;2022-09-23T01:20:27;10.93;;;8.52;;
11614;SDS011;5863;52.832;4.758;2022-09-23T01:23:21;10.80;;;8.68;;
11614;SDS011;5863;52.832;4.758;2022-09-23T01:26:04;8.57;;;7.72;;
11614;SDS011;5863;52.832;4.758;2022-09-23T01:28:48;10.88;;;8.52;;
11614;SDS011;5863;52.832;4.758;2022-09-23T01:31:30;11.40;;;8.85;;
11614;SDS011;5863;52.832;4.758;2022-09-23T01:34:08;11.00;;;8.88;;
11614;SDS011;5863;52.832;4.758;2022-09-23T01:36:41;9.30;;;8.30;;
11614;SDS011;5863;52.832;4.758;2022-09-23T01:39:13;9.43;;;7.90;;
11614;SDS011;5863;52.832;4.758;2022-09-23T01:41:49;10.63;;;8.05;;
11614;SDS011;5863;52.832;4.758;2022-09-23T01:44:24;12.27;;;8.88;;
11614;SDS011;5863;52.832;4.758;2022-09-23T01:47:00;10.13;;;8.93;;
11614;SDS011;5863;52.832;4.758;2022-09-23T01:49:31;10.82;;;8.93;;
11614;SDS011;5863;52.832;4.758;2022-09-23T01:52:05;10.43;;;8.73;;
11614;SDS011;5863;52.832;4.758;2022-09-23T01:54:41;11.50;;;8.60;;
11614;SDS011;5863;52.832;4.758;2022-09-23T01:57:15;12.05;;;8.20;;
11614;SDS011;5863;52.832;4.758;2022-09-23T01:59:45;12.88;;;9.10;;
11614;SDS011;5863;52.832;4.758;2022-09-23T02:02:17;11.10;;;9.05;;
11614;SDS011;5863;52.832;4.758;2022-09-23T02:04:51;11.45;;;8.25;;
11614;SDS011;5863;52.832;4.758;2022-09-23T02:07:23;10.95;;;8.50;;
11614;SDS011;5863;52.832;4.758;2022-09-23T02:09:54;9.70;;;8.48;;
11614;SDS011;5863;52.832;4.758;2022-09-23T02:12:23;12.13;;;8.45;;
11614;SDS011;5863;52.832;4.758;2022-09-23T02:14:54;9.45;;;8.18;;
11614;SDS011;5863;52.832;4.758;2022-09-23T02:17:27;12.40;;;8.73;;
11614;SDS011;5863;52.832;4.758;2022-09-23T02:19:59;9.65;;;7.78;;
11614;SDS011;5863;52.832;4.758;2022-09-23T02:22:29;9.85;;;8.43;;
11614;SDS011;5863;52.832;4.758;2022-09-23T02:25:03;10.88;;;8.63;;
11614;SDS011;5863;52.832;4.758;2022-09-23T02:27:33;12.38;;;8.68;;
11614;SDS011;5863;52.832;4.758;2022-09-23T02:30:05;9.82;;;8.70;;
11614;SDS011;5863;52.832;4.758;2022-09-23T02:32:37;9.82;;;8.25;;
11614;SDS011;5863;52.832;4.758;2022-09-23T02:35:13;9.38;;;8.18;;
11614;SDS011;5863;52.832;4.758;2022-09-23T02:37:45;13.20;;;8.48;;
11614;SDS011;5863;52.832;4.758;2022-09-23T02:40:18;10.02;;;8.05;;
11614;SDS011;5863;52.832;4.758;2022-09-23T02:42:51;11.20;;;8.25;;
11614;SDS011;5863;52.832;4.758;2022-09-23T02:45:24;11.15;;;9.07;;
11614;SDS011;5863;52.832;4.758;2022-09-23T02:47:52;10.93;;;8.05;;
11614;SDS011;5863;52.832;4.758;2022-09-23T02:50:24;11.00;;;8.63;;
11614;SDS011;5863;52.832;4.758;2022-09-23T02:52:52;12.48;;;8.15;;
11614;SDS011;5863;52.832;4.758;2022-09-23T02:55:19;10.15;;;8.30;;
11614;SDS011;5863;52.832;4.758;2022-09-23T02:57:48;10.75;;;8.30;;
11614;SDS011;5863;52.832;4.758;2022-09-23T03:00:17;9.63;;;7.97;;
11614;SDS011;5863;52.832;4.758;2022-09-23T03:05:43;12.27;;;8.50;;
11614;SDS011;5863;52.832;4.758;2022-09-23T03:08:21;9.23;;;7.85;;
11614;SDS011;5863;52.832;4.758;2022-09-23T03:10:58;9.35;;;7.88;;
11614;SDS011;5863;52.832;4.758;2022-09-23T03:13:30;9.65;;;8.23;;
11614;SDS011;5863;52.832;4.758;2022-09-23T03:16:04;9.32;;;7.80;;
11614;SDS011;5863;52.832;4.758;2022-09-23T03:18:39;9.73;;;7.70;;
11614;SDS011;5863;52.832;4.758;2022-09-23T03:21:12;11.23;;;8.48;;
11614;SDS011;5863;52.832;4.758;2022-09-23T03:23:44;13.35;;;8.70;;
11614;SDS011;5863;52.832;4.758;2022-09-23T03:26:14;15.25;;;8.98;;
11614;SDS011;5863;52.832;4.758;2022-09-23T03:28:44;12.38;;;9.10;;
11614;SDS011;5863;52.832;4.758;2022-09-23T03:31:12;10.90;;;8.93;;
11614;SDS011;5863;52.832;4.758;2022-09-23T03:33:42;11.88;;;9.20;;
11614;SDS011;5863;52.832;4.758;2022-09-23T03:36:13;9.85;;;8.60;;
11614;SDS011;5863;52.832;4.758;2022-09-23T03:39:04;12.30;;;9.05;;
11614;SDS011;5863;52.832;4.758;2022-09-23T03:41:33;11.68;;;8.68;;
11614;SDS011;5863;52.832;4.758;2022-09-23T03:44:04;11.77;;;8.98;;
11614;SDS011;5863;52.832;4.758;2022-09-23T03:46:33;10.05;;;9.05;;
11614;SDS011;5863;52.832;4.758;2022-09-23T03:49:03;11.63;;;8.57;;
11614;SDS011;5863;52.832;4.758;2022-09-23T03:51:35;9.60;;;7.85;;
11614;SDS011;5863;52.832;4.758;2022-09-23T03:54:02;9.75;;;8.38;;
11614;SDS011;5863;52.832;4.758;2022-09-23T03:56:28;11.48;;;8.60;;
11614;SDS011;5863;52.832;4.758;2022-09-23T03:58:55;11.38;;;8.68;;
11614;SDS011;5863;52.832;4.758;2022-09-23T04:01:22;12.07;;;8.18;;
11614;SDS011;5863;52.832;4.758;2022-09-23T04:03:48;9.90;;;8.32;;
11614;SDS011;5863;52.832;4.758;2022-09-23T04:06:17;11.13;;;8.82;;
11614;SDS011;5863;52.832;4.758;2022-09-23T04:08:44;9.88;;;7.85;;
11614;SDS011;5863;52.832;4.758;2022-09-23T04:11:11;11.32;;;7.72;;
11614;SDS011;5863;52.832;4.758;2022-09-23T04:13:38;11.20;;;8.18;;
11614;SDS011;5863;52.832;4.758;2022-09-23T04:16:05;10.30;;;7.70;;
11614;SDS011;5863;52.832;4.758;2022-09-23T04:18:31;12.60;;;7.78;;
11614;SDS011;5863;52.832;4.758;2022-09-23T04:20:59;13.85;;;8.20;;
11614;SDS011;5863;52.832;4.758;2022-09-23T04:23:27;11.10;;;8.13;;
11614;SDS011;5863;52.832;4.758;2022-09-23T04:25:54;10.88;;;8.02;;
11614;SDS011;5863;52.832;4.758;2022-09-23T04:28:21;10.95;;;8.68;;
11614;SDS011;5863;52.832;4.758;2022-09-23T04:30:48;10.52;;;7.40;;
11614;SDS011;5863;52.832;4.758;2022-09-23T04:33:17;11.27;;;7.57;;
11614;SDS011;5863;52.832;4.758;2022-09-23T04:35:48;11.68;;;8.02;;
11614;SDS011;5863;52.832;4.758;2022-09-23T04:38:15;11.13;;;8.30;;
11614;SDS011;5863;52.832;4.758;2022-09-23T04:40:43;14.43;;;8.45;;
11614;SDS011;5863;52.832;4.758;2022-09-23T04:43:10;9.98;;;7.75;;
11614;SDS011;5863;52.832;4.758;2022-09-23T04:45:37;12.80;;;8.02;;
11614;SDS011;5863;52.832;4.758;2022-09-23T04:48:04;9.10;;;7.53;;
11614;SDS011;5863;52.832;4.758;2022-09-23T04:50:31;8.98;;;7.90;;
11614;SDS011;5863;52.832;4.758;2022-09-23T04:53:01;12.38;;;8.02;;
11614;SDS011;5863;52.832;4.758;2022-09-23T04:55:28;10.80;;;8.00;;
11614;SDS011;5863;52.832;4.758;2022-09-23T04:57:57;9.90;;;7.53;;
11614;SDS011;5863;52.832;4.758;2022-09-23T05:00:23;8.60;;;7.20;;
11614;SDS011;5863;52.832;4.758;2022-09-23T05:02:51;11.63;;;7.90;;
11614;SDS011;5863;52.832;4.758;2022-09-23T05:05:17;9.88;;;7.45;;
11614;SDS011;5863;52.832;4.758;2022-09-23T05:07:45;9.05;;;7.70;;
11614;SDS011;5863;52.832;4.758;2022-09-23T05:10:12;10.88;;;8.10;;
11614;SDS011;5863;52.832;4.758;2022-09-23T05:12:39;10.27;;;7.88;;
11614;SDS011;5863;52.832;4.758;2022-09-23T05:15:07;8.73;;;7.32;;
11614;SDS011;5863;52.832;4.758;2022-09-23T05:17:34;11.55;;;7.60;;
11614;SDS011;5863;52.832;4.758;2022-09-23T05:20:01;8.85;;;7.93;;
11614;SDS011;5863;52.832;4.758;2022-09-23T05:22:28;14.18;;;8.13;;
11614;SDS011;5863;52.832;4.758;2022-09-23T05:24:55;9.93;;;8.43;;
11614;SDS011;5863;52.832;4.758;2022-09-23T05:27:23;10.50;;;8.30;;
11614;SDS011;5863;52.832;4.758;2022-09-23T05:29:50;10.93;;;8.57;;
11614;SDS011;5863;52.832;4.758;2022-09-23T05:32:18;10.55;;;7.85;;
11614;SDS011;5863;52.832;4.758;2022-09-23T05:34:45;9.90;;;8.20;;
11614;SDS011;5863;52.832;4.758;2022-09-23T05:37:11;10.65;;;8.27;;
11614;SDS011;5863;52.832;4.758;2022-09-23T05:39:38;10.43;;;8.00;;
11614;SDS011;5863;52.832;4.758;2022-09-23T05:42:05;10.10;;;8.02;;
11614;SDS011;5863;52.832;4.758;2022-09-23T05:44:32;11.02;;;8.20;;
11614;SDS011;5863;52.832;4.758;2022-09-23T05:46:58;11.07;;;8.40;;
11614;SDS011;5863;52.832;4.758;2022-09-23T05:49:28;12.15;;;9.05;;
11614;SDS011;5863;52.832;4.758;2022-09-23T05:51:54;13.25;;;8.65;;
11614;SDS011;5863;52.832;4.758;2022-09-23T05:54:21;13.00;;;8.60;;
11614;SDS011;5863;52.832;4.758;2022-09-23T05:56:48;14.27;;;9.02;;
11614;SDS011;5863;52.832;4.758;2022-09-23T05:59:15;9.63;;;8.00;;
11614;SDS011;5863;52.832;4.758;2022-09-23T06:01:42;11.98;;;8.65;;
11614;SDS011;5863;52.832;4.758;2022-09-23T06:04:13;11.20;;;8.88;;
11614;SDS011;5863;52.832;4.758;2022-09-23T06:06:41;11.45;;;8.70;;
11614;SDS011;5863;52.832;4.758;2022-09-23T06:09:09;11.73;;;8.70;;
11614;SDS011;5863;52.832;4.758;2022-09-23T06:11:38;10.63;;;8.63;;
11614;SDS011;5863;52.832;4.758;2022-09-23T06:14:06;10.07;;;8.95;;
11614;SDS011;5863;52.832;4.758;2022-09-23T06:16:42;11.25;;;8.65;;
11614;SDS011;5863;52.832;4.758;2022-09-23T06:19:09;13.43;;;8.82;;
11614;SDS011;5863;52.832;4.758;2022-09-23T06:21:37;10.73;;;9.30;;
11614;SDS011;5863;52.832;4.758;2022-09-23T06:24:06;11.20;;;9.27;;
11614;SDS011;5863;52.832;4.758;2022-09-23T06:26:34;12.70;;;9.38;;
11614;SDS011;5863;52.832;4.758;2022-09-23T06:29:02;11.98;;;9.80;;
11614;SDS011;5863;52.832;4.758;2022-09-23T06:31:33;12.35;;;8.93;;
11614;SDS011;5863;52.832;4.758;2022-09-23T06:34:00;11.20;;;9.38;;
11614;SDS011;5863;52.832;4.758;2022-09-23T06:36:27;10.75;;;9.60;;
11614;SDS011;5863;52.832;4.758;2022-09-23T06:38:54;15.32;;;9.52;;
11614;SDS011;5863;52.832;4.758;2022-09-23T06:41:21;12.73;;;9.90;;
11614;SDS011;5863;52.832;4.758;2022-09-23T06:43:48;17.00;;;9.85;;
11614;SDS011;5863;52.832;4.758;2022-09-23T06:46:15;13.25;;;10.60;;
11614;SDS011;5863;52.832;4.758;2022-09-23T06:48:42;13.35;;;10.23;;
11614;SDS011;5863;52.832;4.758;2022-09-23T06:51:09;10.73;;;9.63;;
11614;SDS011;5863;52.832;4.758;2022-09-23T06:53:43;14.18;;;10.77;;
11614;SDS011;5863;52.832;4.758;2022-09-23T06:56:10;15.75;;;10.95;;
11614;SDS011;5863;52.832;4.758;2022-09-23T06:58:38;13.75;;;10.07;;
11614;SDS011;5863;52.832;4.758;2022-09-23T07:01:06;17.52;;;11.40;;
11614;SDS011;5863;52.832;4.758;2022-09-23T07:03:35;15.10;;;10.65;;
11614;SDS011;5863;52.832;4.758;2022-09-23T07:06:03;14.00;;;10.45;;
11614;SDS011;5863;52.832;4.758;2022-09-23T07:08:31;17.63;;;11.77;;
11614;SDS011;5863;52.832;4.758;2022-09-23T07:10:59;13.80;;;10.80;;
11614;SDS011;5863;52.832;4.758;2022-09-23T07:13:27;16.00;;;11.30;;
11614;SDS011;5863;52.832;4.758;2022-09-23T07:15:56;14.38;;;11.07;;
11614;SDS011;5863;52.832;4.758;2022-09-23T07:18:24;18.60;;;11.93;;
11614;SDS011;5863;52.832;4.758;2022-09-23T07:20:52;12.85;;;11.38;;
11614;SDS011;5863;52.832;4.758;2022-09-23T07:23:22;14.38;;;11.68;;
11614;SDS011;5863;52.832;4.758;2022-09-23T07:25:52;14.77;;;11.55;;
11614;SDS011;5863;52.832;4.758;2022-09-23T07:28:23;15.32;;;11.73;;
11614;SDS011;5863;52.832;4.758;2022-09-23T07:30:51;15.45;;;11.65;;
11614;SDS011;5863;52.832;4.758;2022-09-23T07:33:19;13.77;;;11.63;;
11614;SDS011;5863;52.832;4.758;2022-09-23T07:35:45;14.63;;;11.65;;
11614;SDS011;5863;52.832;4.758;2022-09-23T07:38:12;15.70;;;11.95;;
11614;SDS011;5863;52.832;4.758;2022-09-23T07:40:42;16.13;;;12.13;;
11614;SDS011;5863;52.832;4.758;2022-09-23T07:43:08;16.45;;;12.23;;
11614;SDS011;5863;52.832;4.758;2022-09-23T07:45:36;16.60;;;12.80;;
11614;SDS011;5863;52.832;4.758;2022-09-23T07:48:07;14.25;;;12.38;;
11614;SDS011;5863;52.832;4.758;2022-09-23T07:50:35;17.23;;;13.23;;
11614;SDS011;5863;52.832;4.758;2022-09-23T07:53:05;17.13;;;13.52;;
11614;SDS011;5863;52.832;4.758;2022-09-23T07:55:32;15.07;;;13.07;;
11614;SDS011;5863;52.832;4.758;2022-09-23T07:57:59;16.02;;;13.20;;
11614;SDS011;5863;52.832;4.758;2022-09-23T08:00:26;19.38;;;13.75;;
11614;SDS011;5863;52.832;4.758;2022-09-23T08:02:53;15.55;;;13.10;;
11614;SDS011;5863;52.832;4.758;2022-09-23T08:05:22;18.33;;;13.35;;
11614;SDS011;5863;52.832;4.758;2022-09-23T08:07:52;17.10;;;14.18;;
11614;SDS011;5863;52.832;4.758;2022-09-23T08:10:18;18.33;;;14.20;;
11614;SDS011;5863;52.832;4.758;2022-09-23T08:12:45;20.05;;;14.35;;
11614;SDS011;5863;52.832;4.758;2022-09-23T08:15:13;19.48;;;14.35;;
11614;SDS011;5863;52.832;4.758;2022-09-23T08:17:41;17.70;;;15.00;;
11614;SDS011;5863;52.832;4.758;2022-09-23T08:20:08;19.25;;;15.70;;
11614;SDS011;5863;52.832;4.758;2022-09-23T08:22:57;19.83;;;15.30;;
11614;SDS011;5863;52.832;4.758;2022-09-23T08:25:23;18.88;;;14.68;;
11614;SDS011;5863;52.832;4.758;2022-09-23T08:27:50;19.15;;;14.63;;
11614;SDS011;5863;52.832;4.758;2022-09-23T08:30:17;18.48;;;14.38;;
11614;SDS011;5863;52.832;4.758;2022-09-23T08:32:44;20.10;;;14.95;;
11614;SDS011;5863;52.832;4.758;2022-09-23T08:35:14;18.52;;;14.57;;
11614;SDS011;5863;52.832;4.758;2022-09-23T08:37:41;19.90;;;14.65;;
11614;SDS011;5863;52.832;4.758;2022-09-23T08:40:15;18.02;;;14.75;;
11614;SDS011;5863;52.832;4.758;2022-09-23T08:42:43;20.60;;;16.10;;
11614;SDS011;5863;52.832;4.758;2022-09-23T08:45:13;21.38;;;16.58;;
11614;SDS011;5863;52.832;4.758;2022-09-23T08:47:43;20.95;;;16.33;;
11614;SDS011;5863;52.832;4.758;2022-09-23T08:50:19;17.40;;;15.60;;
11614;SDS011;5863;52.832;4.758;2022-09-23T08:52:49;21.42;;;16.52;;
11614;SDS011;5863;52.832;4.758;2022-09-23T08:55:20;20.92;;;16.40;;
11614;SDS011;5863;52.832;4.758;2022-09-23T08:57:59;19.83;;;16.08;;
11614;SDS011;5863;52.832;4.758;2022-09-23T09:00:33;24.75;;;17.77;;
11614;SDS011;5863;52.832;4.758;2022-09-23T09:03:10;21.52;;;16.80;;
11614;SDS011;5863;52.832;4.758;2022-09-23T09:05:45;21.55;;;16.38;;
11614;SDS011;5863;52.832;4.758;2022-09-23T09:08:13;22.08;;;16.45;;
11614;SDS011;5863;52.832;4.758;2022-09-23T09:10:49;19.23;;;15.45;;
11614;SDS011;5863;52.832;4.758;2022-09-23T09:13:22;19.27;;;15.55;;
11614;SDS011;5863;52.832;4.758;2022-09-23T09:15:58;23.75;;;16.95;;
11614;SDS011;5863;52.832;4.758;2022-09-23T09:18:39;21.05;;;16.63;;
11614;SDS011;5863;52.832;4.758;2022-09-23T09:21:13;20.83;;;16.70;;
11614;SDS011;5863;52.832;4.758;2022-09-23T09:23:42;19.33;;;15.52;;
11614;SDS011;5863;52.832;4.758;2022-09-23T09:26:18;19.90;;;16.13;;
11614;SDS011;5863;52.832;4.758;2022-09-23T09:28:48;19.60;;;16.50;;
11614;SDS011;5863;52.832;4.758;2022-09-23T09:31:19;19.23;;;16.10;;
11614;SDS011;5863;52.832;4.758;2022-09-23T09:33:52;19.35;;;15.93;;
11614;SDS011;5863;52.832;4.758;2022-09-23T09:36:27;18.77;;;16.30;;
11614;SDS011;5863;52.832;4.758;2022-09-23T09:38:59;20.52;;;15.90;;
11614;SDS011;5863;52.832;4.758;2022-09-23T09:41:28;20.40;;;15.88;;
11614;SDS011;5863;52.832;4.758;2022-09-23T09:43:56;21.23;;;16.58;;
11614;SDS011;5863;52.832;4.758;2022-09-23T09:46:28;22.25;;;16.58;;
11614;SDS011;5863;52.832;4.758;2022-09-23T09:49:06;18.33;;;15.35;;
11614;SDS011;5863;52.832;4.758;2022-09-23T09:51:39;19.90;;;16.27;;
11614;SDS011;5863;52.832;4.758;2022-09-23T09:54:16;21.50;;;16.40;;
11614;SDS011;5863;52.832;4.758;2022-09-23T09:56:48;19.08;;;16.48;;
11614;SDS011;5863;52.832;4.758;2022-09-23T09:59:17;18.48;;;16.52;;
11614;SDS011;5863;52.832;4.758;2022-09-23T10:01:55;22.58;;;16.90;;
11614;SDS011;5863;52.832;4.758;2022-09-23T10:04:38;20.83;;;16.33;;
11614;SDS011;5863;52.832;4.758;2022-09-23T10:07:06;19.95;;;16.38;;
11614;SDS011;5863;52.832;4.758;2022-09-23T10:09:37;23.17;;;16.27;;
11614;SDS011;5863;52.832;4.758;2022-09-23T10:12:15;20.60;;;16.67;;
11614;SDS011;5863;52.832;4.758;2022-09-23T10:14:44;21.23;;;16.38;;
11614;SDS011;5863;52.832;4.758;2022-09-23T10:17:15;18.92;;;15.98;;
11614;SDS011;5863;52.832;4.758;2022-09-23T10:19:46;23.85;;;18.00;;
11614;SDS011;5863;52.832;4.758;2022-09-23T10:22:17;21.23;;;17.95;;
11614;SDS011;5863;52.832;4.758;2022-09-23T10:24:46;23.77;;;17.85;;
11614;SDS011;5863;52.832;4.758;2022-09-23T10:27:16;21.98;;;18.17;;
11614;SDS011;5863;52.832;4.758;2022-09-23T10:29:51;20.25;;;17.02;;
11614;SDS011;5863;52.832;4.758;2022-09-23T10:32:27;23.08;;;17.02;;
11614;SDS011;5863;52.832;4.758;2022-09-23T10:34:57;17.52;;;15.00;;
11614;SDS011;5863;52.832;4.758;2022-09-23T10:37:32;18.13;;;15.40;;
11614;SDS011;5863;52.832;4.758;2022-09-23T10:40:11;19.30;;;15.65;;
11614;SDS011;5863;52.832;4.758;2022-09-23T10:46:05;19.40;;;15.85;;
11614;SDS011;5863;52.832;4.758;2022-09-23T10:49:00;21.23;;;16.92;;
11614;SDS011;5863;52.832;4.758;2022-09-23T10:51:51;17.58;;;15.43;;
11614;SDS011;5863;52.832;4.758;2022-09-23T10:54:29;23.45;;;17.10;;
11614;SDS011;5863;52.832;4.758;2022-09-23T10:57:06;21.55;;;16.70;;
11614;SDS011;5863;52.832;4.758;2022-09-23T11:00:11;20.75;;;16.15;;
11614;SDS011;5863;52.832;4.758;2022-09-23T11:05:45;21.85;;;17.02;;
11614;SDS011;5863;52.832;4.758;2022-09-23T11:08:26;20.00;;;16.00;;
11614;SDS011;5863;52.832;4.758;2022-09-23T11:11:05;21.67;;;17.45;;
11614;SDS011;5863;52.832;4.758;2022-09-23T11:13:51;20.75;;;17.92;;
11614;SDS011;5863;52.832;4.758;2022-09-23T11:16:50;20.85;;;17.15;;
11614;SDS011;5863;52.832;4.758;2022-09-23T11:22:28;22.27;;;18.00;;
11614;SDS011;5863;52.832;4.758;2022-09-23T11:27:58;20.50;;;18.17;;
11614;SDS011;5863;52.832;4.758;2022-09-23T11:30:44;21.83;;;18.77;;
11614;SDS011;5863;52.832;4.758;2022-09-23T11:33:22;24.85;;;17.77;;
11614;SDS011;5863;52.832;4.758;2022-09-23T11:36:00;19.20;;;17.20;;
11614;SDS011;5863;52.832;4.758;2022-09-23T11:38:34;20.00;;;16.35;;
11614;SDS011;5863;52.832;4.758;2022-09-23T11:41:07;22.60;;;17.42;;
11614;SDS011;5863;52.832;4.758;2022-09-23T11:43:41;20.95;;;16.27;;
11614;SDS011;5863;52.832;4.758;2022-09-23T11:46:17;20.88;;;16.92;;
11614;SDS011;5863;52.832;4.758;2022-09-23T11:48:54;24.83;;;17.05;;
11614;SDS011;5863;52.832;4.758;2022-09-23T11:51:28;22.15;;;17.27;;
11614;SDS011;5863;52.832;4.758;2022-09-23T11:53:59;19.60;;;16.88;;
11614;SDS011;5863;52.832;4.758;2022-09-23T11:56:32;22.70;;;17.60;;
11614;SDS011;5863;52.832;4.758;2022-09-23T11:59:03;27.50;;;18.30;;
11614;SDS011;5863;52.832;4.758;2022-09-23T12:01:36;20.33;;;16.67;;
11614;SDS011;5863;52.832;4.758;2022-09-23T12:04:10;20.83;;;17.45;;
11614;SDS011;5863;52.832;4.758;2022-09-23T12:06:45;20.88;;;16.30;;
11614;SDS011;5863;52.832;4.758;2022-09-23T12:09:17;21.85;;;16.25;;
11614;SDS011;5863;52.832;4.758;2022-09-23T12:11:47;18.08;;;15.27;;
11614;SDS011;5863;52.832;4.758;2022-09-23T12:14:20;20.98;;;15.88;;
11614;SDS011;5863;52.832;4.758;2022-09-23T12:16:59;19.95;;;15.88;;
11614;SDS011;5863;52.832;4.758;2022-09-23T12:19:49;20.55;;;15.98;;
11614;SDS011;5863;52.832;4.758;2022-09-23T12:22:42;19.08;;;15.75;;
11614;SDS011;5863;52.832;4.758;2022-09-23T12:25:30;20.00;;;15.60;;
11614;SDS011;5863;52.832;4.758;2022-09-23T12:28:03;21.50;;;15.15;;
11614;SDS011;5863;52.832;4.758;2022-09-23T12:30:35;16.48;;;14.73;;
11614;SDS011;5863;52.832;4.758;2022-09-23T12:33:06;22.00;;;15.18;;
11614;SDS011;5863;52.832;4.758;2022-09-23T12:35:39;18.40;;;15.63;;
11614;SDS011;5863;52.832;4.758;2022-09-23T12:38:12;22.65;;;15.25;;
11614;SDS011;5863;52.832;4.758;2022-09-23T12:40:43;24.02;;;16.20;;
11614;SDS011;5863;52.832;4.758;2022-09-23T12:43:16;20.92;;;14.80;;
11614;SDS011;5863;52.832;4.758;2022-09-23T12:45:45;21.55;;;15.70;;
11614;SDS011;5863;52.832;4.758;2022-09-23T12:48:25;24.40;;;16.95;;
11614;SDS011;5863;52.832;4.758;2022-09-23T12:51:20;25.02;;;16.83;;
11614;SDS011;5863;52.832;4.758;2022-09-23T12:53:50;19.77;;;16.23;;
11614;SDS011;5863;52.832;4.758;2022-09-23T12:56:23;21.00;;;16.38;;
11614;SDS011;5863;52.832;4.758;2022-09-23T13:01:45;22.17;;;16.20;;
11614;SDS011;5863;52.832;4.758;2022-09-23T13:04:29;25.45;;;15.73;;
11614;SDS011;5863;52.832;4.758;2022-09-23T13:07:16;20.70;;;16.27;;
11614;SDS011;5863;52.832;4.758;2022-09-23T13:09:48;23.98;;;16.48;;
11614;SDS011;5863;52.832;4.758;2022-09-23T13:12:18;22.83;;;17.73;;
11614;SDS011;5863;52.832;4.758;2022-09-23T13:14:52;19.48;;;16.02;;
11614;SDS011;5863;52.832;4.758;2022-09-23T13:17:25;24.45;;;18.42;;
11614;SDS011;5863;52.832;4.758;2022-09-23T13:19:56;23.20;;;17.50;;
11614;SDS011;5863;52.832;4.758;2022-09-23T13:25:31;21.70;;;18.05;;
11614;SDS011;5863;52.832;4.758;2022-09-23T13:28:10;20.92;;;18.17;;
11614;SDS011;5863;52.832;4.758;2022-09-23T13:30:51;22.40;;;19.25;;
11614;SDS011;5863;52.832;4.758;2022-09-23T13:33:21;21.58;;;17.95;;
11614;SDS011;5863;52.832;4.758;2022-09-23T13:35:54;21.77;;;18.35;;
11614;SDS011;5863;52.832;4.758;2022-09-23T13:38:27;23.70;;;18.92;;
11614;SDS011;5863;52.832;4.758;2022-09-23T13:40:57;24.63;;;19.80;;
11614;SDS011;5863;52.832;4.758;2022-09-23T13:43:28;23.25;;;18.65;;
11614;SDS011;5863;52.832;4.758;2022-09-23T13:46:00;20.85;;;18.45;;
11614;SDS011;5863;52.832;4.758;2022-09-23T13:48:29;23.77;;;19.02;;
11614;SDS011;5863;52.832;4.758;2022-09-23T13:51:07;26.13;;;20.33;;
11614;SDS011;5863;52.832;4.758;2022-09-23T13:53:36;26.23;;;20.98;;
11614;SDS011;5863;52.832;4.758;2022-09-23T13:56:10;24.83;;;22.13;;
11614;SDS011;5863;52.832;4.758;2022-09-23T13:58:44;26.25;;;19.95;;
11614;SDS011;5863;52.832;4.758;2022-09-23T14:01:19;22.20;;;19.60;;
11614;SDS011;5863;52.832;4.758;2022-09-23T14:03:54;22.63;;;18.48;;
11614;SDS011;5863;52.832;4.758;2022-09-23T14:06:21;23.38;;;17.70;;
11614;SDS011;5863;52.832;4.758;2022-09-23T14:08:49;18.85;;;16.10;;
11614;SDS011;5863;52.832;4.758;2022-09-23T14:11:16;21.02;;;16.98;;
11614;SDS011;5863;52.832;4.758;2022-09-23T14:13:45;18.13;;;16.33;;
11614;SDS011;5863;52.832;4.758;2022-09-23T14:16:16;17.55;;;15.75;;
11614;SDS011;5863;52.832;4.758;2022-09-23T14:18:44;18.35;;;15.00;;
11614;SDS011;5863;52.832;4.758;2022-09-23T14:21:28;12.48;;;10.07;;
11614;SDS011;5863;52.832;4.758;2022-09-23T14:26:39;10.15;;;6.60;;
11614;SDS011;5863;52.832;4.758;2022-09-23T14:29:09;7.43;;;4.82;;
11614;SDS011;5863;52.832;4.758;2022-09-23T14:31:38;7.40;;;5.10;;
11614;SDS011;5863;52.832;4.758;2022-09-23T14:37:25;7.70;;;4.22;;
11614;SDS011;5863;52.832;4.758;2022-09-23T14:40:16;4.63;;;3.90;;
11614;SDS011;5863;52.832;4.758;2022-09-23T14:42:44;6.93;;;5.50;;
11614;SDS011;5863;52.832;4.758;2022-09-23T14:45:14;7.88;;;6.40;;
11614;SDS011;5863;52.832;4.758;2022-09-23T14:47:45;7.40;;;6.43;;
11614;SDS011;5863;52.832;4.758;2022-09-23T14:50:15;7.43;;;6.68;;
11614;SDS011;5863;52.832;4.758;2022-09-23T14:56:07;10.65;;;7.38;;
11614;SDS011;5863;52.832;4.758;2022-09-23T14:58:41;10.20;;;7.28;;
11614;SDS011;5863;52.832;4.758;2022-09-23T15:01:23;10.82;;;8.93;;
11614;SDS011;5863;52.832;4.758;2022-09-23T15:03:51;11.35;;;8.73;;
11614;SDS011;5863;52.832;4.758;2022-09-23T15:06:18;12.27;;;9.40;;
11614;SDS011;5863;52.832;4.758;2022-09-23T15:08:47;12.43;;;9.13;;
11614;SDS011;5863;52.832;4.758;2022-09-23T15:11:15;12.38;;;9.93;;
11614;SDS011;5863;52.832;4.758;2022-09-23T15:13:44;14.88;;;10.27;;
11614;SDS011;5863;52.832;4.758;2022-09-23T15:16:13;12.15;;;9.82;;
11614;SDS011;5863;52.832;4.758;2022-09-23T15:18:52;12.07;;;9.73;;
11614;SDS011;5863;52.832;4.758;2022-09-23T15:21:29;12.88;;;10.20;;
11614;SDS011;5863;52.832;4.758;2022-09-23T15:24:23;14.40;;;9.82;;
11614;SDS011;5863;52.832;4.758;2022-09-23T15:27:00;9.68;;;8.77;;
11614;SDS011;5863;52.832;4.758;2022-09-23T15:29:26;10.85;;;8.18;;
11614;SDS011;5863;52.832;4.758;2022-09-23T15:31:57;9.38;;;8.48;;
11614;SDS011;5863;52.832;4.758;2022-09-23T15:34:24;9.80;;;8.80;;
11614;SDS011;5863;52.832;4.758;2022-09-23T15:36:50;8.95;;;7.55;;
11614;SDS011;5863;52.832;4.758;2022-09-23T15:39:18;8.65;;;7.75;;